Time;durP1;ratioP1;P1;durP2;ratioP2;P2;SDS_P1;SDS_P2;PMS_P1;PMS_P2;Temp;Humidity;BMP_temperature;BMP_pressure;BME280_temperature;BME280_humidity;BME280_pressure;Samples;Min_cycle;Max_cycle;Signal;HPM_P1;HPM_P2
2022/01/18 00:01:50;;;;;;;39.60;7.93;;;5.20;40.40;;;;;;4989109;28;20468;-73
2022/01/18 00:04:17;;;;;;;40.40;7.90;;;5.20;40.40;;;;;;4989564;28;20866;-73
2022/01/18 00:06:48;;;;;;;39.43;7.50;;;5.20;40.30;;;;;;4989944;28;20460;-73
2022/01/18 00:09:18;;;;;;;41.37;9.33;;;5.20;40.40;;;;;;4988667;28;20560;-73
2022/01/18 00:11:48;;;;;;;40.67;7.30;;;5.20;40.40;;;;;;4989366;28;20484;-72
2022/01/18 00:14:25;;;;;;;41.90;7.93;;;5.10;40.50;;;;;;4989855;28;20488;-73
2022/01/18 00:17:03;;;;;;;41.23;8.40;;;5.10;40.50;;;;;;4989202;28;21077;-73
2022/01/18 00:19:31;;;;;;;39.50;7.60;;;5.10;40.50;;;;;;4988691;28;20471;-73
2022/01/18 00:24:40;;;;;;;39.60;6.80;;;5.10;40.70;;;;;;4987288;28;20939;-72
2022/01/18 00:27:11;;;;;;;40.10;7.93;;;5.10;40.90;;;;;;4989566;28;20464;-73
2022/01/18 00:29:46;;;;;;;41.40;8.37;;;5.10;40.80;;;;;;4988428;28;20495;-73
2022/01/18 00:32:20;;;;;;;41.13;8.53;;;5.10;40.90;;;;;;4988156;28;20484;-74
2022/01/18 00:34:51;;;;;;;39.43;7.20;;;5.10;41.00;;;;;;4989627;28;20460;-73
2022/01/18 00:37:32;;;;;;;39.23;7.60;;;5.20;40.70;;;;;;4989187;28;20471;-73
2022/01/18 00:39:58;;;;;;;41.33;7.87;;;5.20;40.80;;;;;;4988202;28;20571;-73
2022/01/18 00:42:25;;;;;;;38.67;7.20;;;5.20;40.60;;;;;;4988993;28;20463;-73
2022/01/18 00:44:53;;;;;;;42.97;7.90;;;5.20;40.60;;;;;;4989220;28;20461;-73
2022/01/18 00:47:21;;;;;;;40.73;7.20;;;5.20;40.60;;;;;;4989375;28;20460;-73
2022/01/18 00:49:49;;;;;;;40.97;8.10;;;5.20;40.70;;;;;;4987893;28;20484;-73
2022/01/18 00:52:18;;;;;;;38.90;6.70;;;5.20;40.70;;;;;;4987511;28;20489;-73
2022/01/18 00:54:46;;;;;;;40.73;8.40;;;5.20;40.50;;;;;;4988713;28;20695;-73
2022/01/18 00:57:13;;;;;;;39.40;7.60;;;5.20;40.60;;;;;;4988821;28;20469;-73
2022/01/18 00:59:41;;;;;;;40.90;8.07;;;5.20;40.60;;;;;;4988758;28;20485;-73
2022/01/18 01:02:10;;;;;;;40.70;8.60;;;5.20;40.70;;;;;;4986403;28;20473;-73
2022/01/18 01:04:41;;;;;;;40.50;6.97;;;5.20;40.70;;;;;;4988801;28;20460;-72
2022/01/18 01:07:52;;;;;;;39.27;7.73;;;5.20;40.50;;;;;;4989152;28;20464;-73
2022/01/18 01:10:19;;;;;;;39.03;7.40;;;5.20;40.70;;;;;;4988476;28;20843;-73
2022/01/18 01:12:46;;;;;;;40.53;7.70;;;5.30;40.60;;;;;;4987344;28;20568;-73
2022/01/18 01:15:15;;;;;;;40.50;8.03;;;5.20;40.60;;;;;;4988503;28;20950;-73
2022/01/18 01:17:48;;;;;;;38.10;7.00;;;5.20;40.60;;;;;;4988799;28;20457;-73
2022/01/18 01:41:40;;;;;;;39.70;7.87;;;5.20;40.80;;;;;;4927771;29;20452;-72
2022/01/18 01:42:58;;;;;;;39.50;7.53;;;5.20;40.90;;;;;;4986863;28;20971;-72
2022/01/18 01:45:27;;;;;;;39.43;7.93;;;5.20;40.90;;;;;;4988768;28;20463;-72
2022/01/18 01:47:55;;;;;;;41.57;8.13;;;5.20;41.60;;;;;;4988063;28;20556;-72
2022/01/18 01:50:27;;;;;;;40.30;7.77;;;5.10;40.80;;;;;;4988369;28;20517;-72
2022/01/18 01:52:55;;;;;;;40.57;8.33;;;5.10;41.00;;;;;;4985393;28;20675;-72
2022/01/18 01:55:24;;;;;;;40.70;7.90;;;5.10;40.90;;;;;;4974315;28;20469;-72
2022/01/18 01:57:51;;;;;;;41.37;7.80;;;5.20;41.00;;;;;;4988473;28;20866;-72
2022/01/18 02:00:20;;;;;;;41.20;8.53;;;5.20;40.90;;;;;;4988255;28;20480;-72
2022/01/18 02:02:47;;;;;;;39.97;7.77;;;5.20;40.90;;;;;;4992236;28;20880;-72
2022/01/18 02:05:15;;;;;;;41.93;9.07;;;5.20;40.80;;;;;;4990905;28;20827;-72
2022/01/18 02:07:43;;;;;;;39.87;8.07;;;5.20;40.90;;;;;;4992011;28;20467;-72
2022/01/18 02:10:10;;;;;;;40.77;8.67;;;5.20;40.90;;;;;;4992181;28;20499;-72
2022/01/18 02:12:37;;;;;;;39.57;7.70;;;5.10;40.80;;;;;;4991348;28;21328;-72
2022/01/18 02:15:12;;;;;;;41.70;7.73;;;5.10;40.80;;;;;;4991742;28;20461;-72
2022/01/18 02:23:15;;;;;;;41.90;8.83;;;5.10;41.00;;;;;;4991677;28;20448;-72
2022/01/18 02:25:42;;;;;;;41.30;8.50;;;5.10;41.00;;;;;;4991083;28;20464;-72
2022/01/18 02:28:09;;;;;;;43.30;8.80;;;5.20;40.90;;;;;;4990936;28;20576;-72
2022/01/18 02:30:36;;;;;;;40.20;8.23;;;5.10;41.00;;;;;;4990210;28;20481;-72
2022/01/18 02:33:03;;;;;;;40.80;8.80;;;5.10;41.10;;;;;;4991733;28;20490;-72
2022/01/18 02:35:34;;;;;;;41.77;9.43;;;5.10;41.00;;;;;;4991308;28;20527;-72
2022/01/18 02:38:00;;;;;;;40.67;8.03;;;5.10;41.00;;;;;;4990560;28;20757;-72
2022/01/18 02:40:28;;;;;;;40.90;8.60;;;5.20;41.00;;;;;;4989957;28;20484;-72
2022/01/18 02:42:58;;;;;;;42.63;9.30;;;5.20;41.00;;;;;;4990671;28;20551;-73
2022/01/18 02:45:26;;;;;;;44.87;8.70;;;5.20;40.90;;;;;;4990755;28;20962;-72
2022/01/18 02:47:53;;;;;;;40.87;8.50;;;5.20;41.00;;;;;;4989697;28;20465;-72
2022/01/18 02:50:22;;;;;;;40.57;8.47;;;5.20;40.90;;;;;;4990039;28;20760;-73
2022/01/18 02:52:50;;;;;;;42.30;9.53;;;5.20;40.90;;;;;;4991392;28;20485;-73
2022/01/18 02:55:17;;;;;;;42.00;8.53;;;5.10;40.90;;;;;;4990604;28;20991;-73
2022/01/18 02:57:54;;;;;;;41.27;9.43;;;5.20;41.00;;;;;;4991607;28;20471;-73
2022/01/18 03:00:30;;;;;;;40.03;8.97;;;5.20;41.00;;;;;;4988985;28;21003;-72
2022/01/18 03:03:13;;;;;;;40.97;8.10;;;5.20;41.00;;;;;;4991107;28;20466;-74
2022/01/18 03:05:40;;;;;;;41.27;8.83;;;5.20;41.10;;;;;;4990444;28;21012;-74
2022/01/18 03:08:10;;;;;;;41.63;10.03;;;5.10;41.10;;;;;;4991191;28;20973;-74
2022/01/18 03:10:37;;;;;;;43.73;9.40;;;5.20;41.10;;;;;;4989557;28;20507;-72
2022/01/18 03:13:04;;;;;;;41.17;9.20;;;5.20;41.20;;;;;;4990123;28;20500;-72
2022/01/18 03:15:32;;;;;;;40.90;9.03;;;5.20;41.20;;;;;;4990696;28;20468;-75
2022/01/18 03:18:00;;;;;;;44.23;10.23;;;5.20;41.10;;;;;;4990721;28;20488;-72
2022/01/18 03:20:27;;;;;;;43.53;9.27;;;5.10;41.20;;;;;;4990305;28;20481;-73
2022/01/18 03:22:54;;;;;;;41.47;8.60;;;5.10;41.20;;;;;;4989244;28;20452;-73
2022/01/18 03:25:39;;;;;;;42.37;9.07;;;5.10;41.20;;;;;;4990683;28;20456;-72
2022/01/18 03:28:07;;;;;;;40.60;8.63;;;5.10;41.20;;;;;;4990249;28;20652;-75
2022/01/18 03:30:35;;;;;;;41.90;9.90;;;5.10;41.20;;;;;;4989493;28;20562;-74
2022/01/18 03:33:04;;;;;;;42.27;10.10;;;5.10;41.20;;;;;;4989084;28;20495;-72
2022/01/18 03:35:31;;;;;;;41.43;8.90;;;5.10;41.20;;;;;;4990261;28;20457;-72
2022/01/18 03:37:57;;;;;;;41.40;8.83;;;5.10;41.30;;;;;;4990651;28;20464;-72
2022/01/18 03:40:26;;;;;;;43.20;9.50;;;5.10;41.50;;;;;;4989652;28;20489;-72
2022/01/18 03:42:55;;;;;;;43.27;9.63;;;5.00;41.50;;;;;;4989123;28;20461;-72
2022/01/18 03:45:25;;;;;;;43.37;9.50;;;5.10;41.50;;;;;;4989849;28;20464;-72
2022/01/18 03:47:54;;;;;;;44.27;10.20;;;5.10;41.50;;;;;;4990486;28;20460;-73
2022/01/18 03:50:21;;;;;;;50.10;10.00;;;5.10;41.60;;;;;;4989379;28;20489;-73
2022/01/18 03:52:48;;;;;;;41.47;9.80;;;5.00;41.50;;;;;;4987471;28;20476;-73
2022/01/18 03:55:20;;;;;;;43.07;9.57;;;5.00;41.60;;;;;;4989531;28;20464;-73
2022/01/18 03:57:49;;;;;;;42.10;9.33;;;5.00;41.70;;;;;;4989342;28;20838;-73
2022/01/18 04:00:18;;;;;;;42.17;9.63;;;5.00;41.70;;;;;;4989252;28;20488;-73
2022/01/18 04:02:45;;;;;;;44.00;10.27;;;5.00;41.60;;;;;;4988573;28;20826;-73
2022/01/18 04:05:12;;;;;;;42.97;9.63;;;5.00;41.70;;;;;;4989517;28;20467;-73
2022/01/18 04:07:39;;;;;;;42.40;9.37;;;5.00;41.60;;;;;;4989637;28;20475;-73
2022/01/18 04:10:08;;;;;;;43.60;11.03;;;5.00;41.80;;;;;;4988073;28;20485;-72
2022/01/18 04:12:35;;;;;;;49.70;10.00;;;4.90;41.90;;;;;;4989017;28;20492;-72
2022/01/18 04:15:04;;;;;;;42.93;9.50;;;4.90;41.90;;;;;;4988602;28;20824;-72
2022/01/18 04:17:47;;;;;;;47.57;11.13;;;4.90;41.90;;;;;;4989932;28;20482;-72
2022/01/18 04:25:55;;;;;;;44.27;9.90;;;4.90;42.10;;;;;;4932914;28;20456;-72
2022/01/18 04:28:31;;;;;;;45.47;11.07;;;4.90;42.20;;;;;;4987873;28;20492;-72
2022/01/18 04:30:59;;;;;;;44.20;10.70;;;4.90;42.30;;;;;;4988301;28;20484;-71
2022/01/18 04:33:26;;;;;;;46.30;12.43;;;4.80;42.90;;;;;;4989065;28;20489;-71
2022/01/18 04:35:53;;;;;;;46.63;11.40;;;4.90;42.30;;;;;;4988328;28;20468;-73
2022/01/18 04:38:20;;;;;;;44.07;11.47;;;4.80;42.30;;;;;;4988823;28;20464;-73
2022/01/18 04:40:48;;;;;;;43.60;10.60;;;4.80;42.30;;;;;;4988476;28;20484;-72
2022/01/18 04:43:20;;;;;;;47.67;10.77;;;4.70;42.60;;;;;;4989531;28;20544;-75
2022/01/18 04:48:34;;;;;;;45.90;11.93;;;4.60;42.50;;;;;;4970214;28;20602;-68
2022/01/18 04:51:03;;;;;;;44.10;11.03;;;4.60;42.60;;;;;;4982043;28;20845;-74
2022/01/18 04:53:32;;;;;;;46.83;10.70;;;4.60;42.60;;;;;;4988576;28;20503;-72
2022/01/18 04:56:05;;;;;;;46.40;10.97;;;4.50;42.60;;;;;;4988640;28;20468;-72
2022/01/18 04:58:32;;;;;;;47.07;10.87;;;4.50;42.40;;;;;;4989055;28;20460;-72
2022/01/18 05:01:01;;;;;;;45.27;10.20;;;4.50;42.50;;;;;;4994262;28;20472;-74
2022/01/18 05:03:29;;;;;;;47.17;11.33;;;4.60;42.40;;;;;;5008034;28;20509;-72
2022/01/18 05:06:00;;;;;;;44.00;10.50;;;4.60;42.30;;;;;;5005775;28;20467;-73
2022/01/18 05:08:28;;;;;;;45.23;11.87;;;4.60;42.40;;;;;;5007715;28;20468;-73
2022/01/18 05:10:56;;;;;;;48.80;11.97;;;4.60;42.50;;;;;;5008159;28;20519;-73
2022/01/18 05:19:16;;;;;;;48.07;12.90;;;4.70;42.80;;;;;;4951313;28;20450;-73
2022/01/18 05:24:30;;;;;;;47.27;11.17;;;4.70;43.10;;;;;;5008445;28;20502;-72
2022/01/18 05:26:58;;;;;;;47.80;11.83;;;4.70;43.00;;;;;;5007339;28;20890;-73
2022/01/18 05:29:26;;;;;;;47.77;11.40;;;4.70;42.90;;;;;;5008868;28;20463;-73
2022/01/18 05:31:52;;;;;;;47.17;11.60;;;4.80;42.80;;;;;;5007614;28;20762;-73
2022/01/18 05:34:20;;;;;;;44.13;10.93;;;4.80;42.80;;;;;;5007706;28;20829;-74
2022/01/18 05:36:49;;;;;;;43.60;10.70;;;4.80;42.80;;;;;;5010509;28;20989;-74
2022/01/18 05:39:15;;;;;;;43.00;10.53;;;4.80;42.80;;;;;;5011970;28;20677;-72
2022/01/18 05:41:44;;;;;;;47.83;10.93;;;4.80;42.80;;;;;;5011838;28;20771;-75
2022/01/18 05:44:11;;;;;;;45.50;11.17;;;4.90;42.80;;;;;;5012118;28;20467;-73
2022/01/18 05:46:38;;;;;;;47.27;11.73;;;4.90;42.80;;;;;;5011683;28;20966;-73
2022/01/18 05:49:05;;;;;;;59.93;19.90;;;4.90;42.80;;;;;;5010682;28;20849;-74
2022/01/18 05:51:33;;;;;;;47.30;12.07;;;4.90;42.90;;;;;;5011098;28;20546;-74
2022/01/18 05:54:01;;;;;;;45.80;11.30;;;4.90;42.80;;;;;;5012178;28;20479;-74
2022/01/18 05:56:28;;;;;;;45.43;11.97;;;5.00;42.80;;;;;;5011404;28;20970;-74
2022/01/18 05:58:58;;;;;;;44.30;10.27;;;5.00;42.90;;;;;;5010511;28;20489;-75
2022/01/18 06:01:27;;;;;;;47.27;12.40;;;5.00;42.80;;;;;;5011200;28;20484;-75
2022/01/18 06:04:08;;;;;;;49.73;11.90;;;5.00;42.90;;;;;;5011212;28;20447;-74
2022/01/18 06:06:55;;;;;;;45.83;11.63;;;4.90;42.80;;;;;;5012204;28;20456;-75
2022/01/18 06:09:24;;;;;;;44.33;10.83;;;4.90;43.00;;;;;;5010322;28;20537;-75
2022/01/18 06:11:52;;;;;;;47.00;11.23;;;4.90;43.10;;;;;;5011530;28;20455;-75
2022/01/18 06:14:19;;;;;;;49.63;11.30;;;4.90;43.10;;;;;;5011323;28;20495;-75
2022/01/18 06:16:46;;;;;;;44.60;10.80;;;4.90;43.20;;;;;;5011173;28;20460;-75
2022/01/18 06:19:13;;;;;;;43.63;11.20;;;4.90;43.10;;;;;;5010747;28;20482;-75
2022/01/18 06:21:40;;;;;;;47.73;11.20;;;5.00;43.00;;;;;;5010727;28;20839;-74
2022/01/18 06:24:09;;;;;;;43.50;11.43;;;5.00;42.90;;;;;;5011725;28;20539;-75
2022/01/18 06:26:37;;;;;;;45.10;11.37;;;5.00;42.80;;;;;;5011703;28;20455;-73
2022/01/18 06:29:04;;;;;;;45.10;10.80;;;5.00;42.70;;;;;;5010189;28;20476;-73
2022/01/18 06:31:31;;;;;;;46.40;11.23;;;5.00;42.70;;;;;;5010403;28;20495;-71
2022/01/18 06:33:58;;;;;;;45.90;11.20;;;5.00;43.30;;;;;;5011412;28;20483;-71
2022/01/18 06:36:25;;;;;;;43.37;10.50;;;5.00;42.80;;;;;;5011105;28;20464;-71
2022/01/18 06:38:52;;;;;;;46.20;11.10;;;5.00;42.80;;;;;;5010078;28;20486;-71
2022/01/18 06:41:18;;;;;;;47.07;11.30;;;5.00;42.80;;;;;;5009930;28;20490;-73
2022/01/18 06:43:47;;;;;;;46.50;12.33;;;5.00;42.70;;;;;;5011359;28;20456;-71
2022/01/18 06:46:13;;;;;;;49.07;12.87;;;5.00;42.70;;;;;;5010977;28;20456;-71
2022/01/18 06:48:44;;;;;;;47.77;12.40;;;5.00;42.60;;;;;;5009913;28;20452;-71
2022/01/18 06:51:11;;;;;;;46.63;11.13;;;5.10;42.70;;;;;;5010030;28;20484;-71
2022/01/18 06:53:44;;;;;;;47.80;11.60;;;5.10;42.60;;;;;;5010595;28;20865;-71
2022/01/18 06:56:11;;;;;;;47.33;12.43;;;5.10;42.50;;;;;;5011247;28;20582;-72
2022/01/18 06:58:39;;;;;;;49.03;14.37;;;5.10;42.40;;;;;;5010663;28;20467;-71
2022/01/18 07:01:07;;;;;;;46.63;13.07;;;5.10;42.30;;;;;;5008463;28;20479;-71
2022/01/18 07:03:34;;;;;;;46.90;13.00;;;5.10;42.30;;;;;;5011494;28;20775;-71
2022/01/18 07:06:01;;;;;;;48.37;13.93;;;5.10;42.30;;;;;;5011086;28;20475;-71
2022/01/18 07:08:30;;;;;;;48.83;13.53;;;5.10;42.30;;;;;;5010678;28;20846;-72
2022/01/18 07:10:57;;;;;;;48.67;12.80;;;5.10;42.30;;;;;;5009609;28;20575;-71
2022/01/18 07:13:24;;;;;;;47.67;12.47;;;5.10;42.50;;;;;;5010614;28;21031;-71
2022/01/18 07:15:51;;;;;;;46.40;12.80;;;5.00;42.50;;;;;;5010581;28;20460;-71
2022/01/18 07:18:19;;;;;;;46.50;12.17;;;5.00;42.60;;;;;;5010451;28;20463;-71
2022/01/18 07:20:46;;;;;;;48.93;11.27;;;5.00;42.70;;;;;;5009120;28;21001;-71
2022/01/18 07:23:13;;;;;;;53.90;13.73;;;4.90;42.70;;;;;;5009779;28;20500;-71
2022/01/18 07:25:43;;;;;;;47.13;12.90;;;5.00;42.80;;;;;;5010206;28;20529;-71
2022/01/18 07:28:10;;;;;;;47.77;12.87;;;5.00;42.80;;;;;;5009403;28;20546;-72
2022/01/18 07:30:37;;;;;;;45.40;11.87;;;5.10;43.00;;;;;;5007528;28;20468;-71
2022/01/18 07:33:04;;;;;;;49.00;14.20;;;5.10;42.80;;;;;;5008834;28;20953;-72
2022/01/18 07:35:34;;;;;;;49.17;14.03;;;5.10;42.80;;;;;;5010633;28;20451;-72
2022/01/18 07:38:01;;;;;;;52.77;15.93;;;5.10;42.80;;;;;;5010889;28;20473;-72
2022/01/18 07:40:29;;;;;;;52.33;16.47;;;5.20;42.80;;;;;;5008521;28;20480;-72
2022/01/18 07:42:56;;;;;;;49.67;14.00;;;5.20;42.60;;;;;;5009652;28;20466;-72
2022/01/18 07:45:23;;;;;;;48.50;13.80;;;5.20;42.70;;;;;;5008910;28;20455;-72
2022/01/18 07:47:50;;;;;;;50.87;14.27;;;5.30;42.60;;;;;;5010049;28;20949;-72
2022/01/18 07:50:17;;;;;;;49.03;13.53;;;5.30;42.70;;;;;;5008761;28;21029;-72
2022/01/18 07:52:45;;;;;;;46.63;12.40;;;5.30;42.70;;;;;;5009613;28;20462;-72
2022/01/18 07:55:12;;;;;;;45.77;11.63;;;5.30;42.60;;;;;;5009986;28;20491;-72
2022/01/18 07:57:42;;;;;;;46.77;11.70;;;5.30;42.50;;;;;;5009910;28;20795;-72
2022/01/18 08:00:10;;;;;;;47.87;13.77;;;5.40;42.30;;;;;;5009171;28;21077;-72
2022/01/18 08:02:37;;;;;;;46.73;11.93;;;5.40;42.30;;;;;;5008052;28;21033;-72
2022/01/18 08:05:06;;;;;;;45.10;10.53;;;5.40;42.40;;;;;;5009911;28;20902;-72
2022/01/18 08:07:33;;;;;;;48.53;11.70;;;5.40;42.30;;;;;;5009547;28;20467;-72
2022/01/18 08:10:01;;;;;;;44.37;10.30;;;5.40;42.30;;;;;;5009181;28;20498;-72
2022/01/18 08:12:28;;;;;;;45.90;11.53;;;5.50;42.40;;;;;;5008267;28;20487;-71
2022/01/18 08:15:01;;;;;;;45.77;11.63;;;5.60;42.40;;;;;;5009200;28;20917;-72
2022/01/18 08:17:28;;;;;;;47.60;12.80;;;5.70;42.40;;;;;;5008890;28;20530;-72
2022/01/18 08:19:54;;;;;;;43.63;11.03;;;5.90;42.40;;;;;;5009429;28;20484;-71
2022/01/18 08:22:21;;;;;;;43.47;10.67;;;6.00;42.20;;;;;;5008135;28;20474;-71
2022/01/18 08:24:48;;;;;;;45.07;12.10;;;6.20;42.00;;;;;;5009653;28;20456;-72
2022/01/18 08:27:19;;;;;;;47.77;12.63;;;6.30;41.80;;;;;;5008703;28;20992;-71
2022/01/18 08:29:46;;;;;;;47.10;13.27;;;6.50;41.30;;;;;;5009113;28;20534;-72
2022/01/18 08:32:13;;;;;;;44.70;10.47;;;6.60;41.00;;;;;;5007119;28;20487;-71
2022/01/18 08:34:40;;;;;;;46.37;11.93;;;6.80;40.70;;;;;;5009560;28;20503;-73
2022/01/18 08:37:06;;;;;;;50.67;11.40;;;7.00;40.30;;;;;;5008757;28;20460;-72
2022/01/18 08:39:33;;;;;;;42.47;10.00;;;7.30;40.30;;;;;;5008852;28;20545;-72
2022/01/18 08:42:00;;;;;;;43.60;11.10;;;7.80;40.10;;;;;;5008687;28;20459;-71
2022/01/18 08:44:29;;;;;;;42.53;10.43;;;8.40;38.30;;;;;;4989561;28;20819;-72
2022/01/18 08:46:56;;;;;;;42.87;10.47;;;8.80;36.80;;;;;;4989452;28;20460;-72
2022/01/18 08:49:23;;;;;;;42.53;10.03;;;9.30;34.60;;;;;;4988622;28;20544;-73
2022/01/18 08:51:50;;;;;;;41.20;10.60;;;9.50;33.70;;;;;;4989075;28;20465;-74
2022/01/18 08:54:17;;;;;;;42.30;11.20;;;9.80;33.00;;;;;;5002843;28;20549;-73
2022/01/18 08:56:44;;;;;;;42.70;10.70;;;10.10;31.90;;;;;;5008617;28;20470;-74
2022/01/18 08:59:10;;;;;;;39.53;10.03;;;10.40;30.40;;;;;;5008498;28;20460;-74
2022/01/18 09:01:38;;;;;;;41.53;10.00;;;10.60;29.80;;;;;;5007876;28;20476;-73
2022/01/18 09:04:06;;;;;;;40.83;9.90;;;10.70;29.70;;;;;;5007615;28;20456;-74
2022/01/18 09:06:32;;;;;;;40.60;9.60;;;10.90;30.60;;;;;;5008692;28;20464;-73
2022/01/18 09:09:00;;;;;;;39.63;9.50;;;11.20;29.60;;;;;;5008171;28;20514;-75
2022/01/18 09:11:30;;;;;;;39.03;9.17;;;11.90;27.90;;;;;;5008124;28;20566;-76
2022/01/18 09:13:57;;;;;;;37.23;9.30;;;12.80;24.60;;;;;;5007794;28;20488;-76
2022/01/18 09:16:24;;;;;;;37.33;8.70;;;13.70;21.80;;;;;;5008629;28;20459;-76
2022/01/18 09:18:53;;;;;;;36.70;8.50;;;14.00;20.30;;;;;;5007929;28;20550;-75
2022/01/18 09:21:20;;;;;;;36.40;8.07;;;14.00;19.70;;;;;;5007712;28;20487;-76
2022/01/18 09:23:47;;;;;;;38.03;9.80;;;13.80;19.20;;;;;;4998878;28;20466;-76
2022/01/18 09:26:14;;;;;;;37.93;8.20;;;13.70;19.10;;;;;;5008804;28;20464;-75
2022/01/18 09:28:41;;;;;;;38.73;7.77;;;13.50;18.00;;;;;;5009233;28;20464;-76
2022/01/18 09:31:08;;;;;;;36.50;8.30;;;13.10;17.60;;;;;;5007429;28;20904;-76
2022/01/18 09:33:35;;;;;;;37.57;7.80;;;12.70;18.80;;;;;;5009278;28;20550;-76
2022/01/18 09:36:03;;;;;;;36.83;7.97;;;12.50;19.70;;;;;;5007105;28;20464;-75
2022/01/18 09:38:30;;;;;;;40.90;7.93;;;12.20;19.90;;;;;;5007747;28;20470;-75
2022/01/18 09:40:59;;;;;;;40.63;8.60;;;11.90;20.60;;;;;;5007531;28;20733;-75
2022/01/18 09:43:27;;;;;;;37.50;8.10;;;11.50;21.50;;;;;;5007997;28;20983;-75
2022/01/18 09:45:57;;;;;;;35.73;6.77;;;11.20;22.30;;;;;;5007616;28;20867;-75
2022/01/18 09:48:24;;;;;;;37.53;7.47;;;10.90;22.70;;;;;;5008221;28;20463;-75
2022/01/18 09:50:50;;;;;;;37.10;7.23;;;10.60;23.50;;;;;;5007958;28;20490;-75
2022/01/18 09:53:19;;;;;;;40.37;7.67;;;10.40;24.30;;;;;;5008097;28;20460;-75
2022/01/18 09:55:48;;;;;;;44.77;8.80;;;10.10;24.90;;;;;;5007492;28;20495;-75
2022/01/18 09:58:15;;;;;;;37.93;6.80;;;9.90;25.40;;;;;;5007959;28;20554;-75
2022/01/18 10:00:43;;;;;;;39.50;7.57;;;9.80;25.90;;;;;;5007021;28;20555;-75
2022/01/18 10:03:26;;;;;;;39.70;7.30;;;9.70;26.40;;;;;;5008798;28;20456;-78
2022/01/18 10:05:53;;;;;;;40.50;6.30;;;9.60;26.90;;;;;;5007242;28;20460;-76
2022/01/18 10:08:21;;;;;;;38.03;6.40;;;9.40;27.60;;;;;;5008225;28;20470;-75
2022/01/18 10:10:50;;;;;;;36.97;6.73;;;9.20;27.70;;;;;;5007991;28;20492;-74
2022/01/18 10:13:20;;;;;;;38.10;7.20;;;9.10;28.10;;;;;;5008200;28;20455;-74
2022/01/18 10:16:04;;;;;;;39.80;7.90;;;8.90;28.30;;;;;;5007268;28;20486;-74
2022/01/18 10:18:50;;;;;;;38.70;6.83;;;8.70;28.50;;;;;;5007986;28;20629;-74
2022/01/18 10:21:28;;;;;;;38.50;6.80;;;8.50;29.10;;;;;;5008589;28;20482;-75
2022/01/18 10:24:11;;;;;;;38.03;6.33;;;8.40;29.80;;;;;;5011426;28;20463;-75
2022/01/18 10:26:41;;;;;;;38.40;7.47;;;8.20;30.40;;;;;;5010818;28;20474;-75
2022/01/18 10:29:09;;;;;;;38.77;7.40;;;8.10;30.70;;;;;;5010350;28;20474;-75
2022/01/18 10:31:42;;;;;;;39.70;7.53;;;8.10;31.20;;;;;;5010449;28;20472;-74
2022/01/18 10:34:25;;;;;;;38.77;7.70;;;8.10;31.50;;;;;;5010868;28;20486;-75
2022/01/18 10:37:01;;;;;;;39.93;7.80;;;8.10;31.60;;;;;;5010298;28;20467;-75
2022/01/18 10:39:32;;;;;;;40.77;7.20;;;8.10;31.80;;;;;;5011405;28;20460;-76
2022/01/18 10:42:02;;;;;;;40.00;7.43;;;8.00;31.80;;;;;;5010659;28;20565;-75
2022/01/18 10:44:31;;;;;;;40.40;7.07;;;7.90;32.10;;;;;;5011063;28;20459;-74
2022/01/18 10:46:59;;;;;;;39.40;7.70;;;7.80;31.90;;;;;;5008622;28;20499;-75
2022/01/18 10:49:36;;;;;;;40.07;7.10;;;7.70;32.20;;;;;;4991183;28;20456;-75
2022/01/18 10:52:06;;;;;;;40.30;6.80;;;7.70;32.80;;;;;;4991059;28;20506;-75
2022/01/18 10:54:43;;;;;;;42.10;7.67;;;7.70;32.80;;;;;;4991768;28;20778;-75
2022/01/18 10:57:12;;;;;;;39.10;8.00;;;7.80;32.90;;;;;;4990624;28;20467;-76
2022/01/18 10:59:41;;;;;;;40.00;6.80;;;8.00;32.80;;;;;;5010478;28;21011;-75
2022/01/18 11:02:13;;;;;;;39.73;7.40;;;8.00;32.70;;;;;;5010161;28;20744;-75
2022/01/18 11:04:43;;;;;;;41.10;6.70;;;8.20;32.30;;;;;;5010986;28;20459;-75
2022/01/18 11:07:11;;;;;;;40.40;6.90;;;8.20;31.60;;;;;;5011062;28;20936;-75
2022/01/18 11:09:38;;;;;;;36.80;6.80;;;8.20;31.20;;;;;;5009444;28;20533;-74
2022/01/18 11:12:08;;;;;;;37.53;6.63;;;8.20;31.40;;;;;;5010672;28;20459;-75
2022/01/18 11:14:37;;;;;;;39.97;8.57;;;8.30;31.40;;;;;;5010493;28;20489;-75
2022/01/18 11:17:06;;;;;;;40.60;7.53;;;8.50;31.50;;;;;;5010739;28;20522;-75
2022/01/18 11:19:36;;;;;;;40.30;7.00;;;8.90;31.20;;;;;;5009752;28;20953;-75
2022/01/18 11:22:08;;;;;;;39.17;6.97;;;9.10;30.00;;;;;;5010053;28;20696;-75
2022/01/18 11:24:40;;;;;;;37.10;6.57;;;9.10;29.60;;;;;;5010580;28;20587;-75
2022/01/18 11:27:11;;;;;;;39.20;6.40;;;9.20;29.40;;;;;;5010354;28;20468;-75
2022/01/18 11:29:38;;;;;;;37.13;7.10;;;9.30;30.20;;;;;;5009415;28;20615;-75
2022/01/18 11:32:06;;;;;;;36.97;6.53;;;9.30;29.40;;;;;;5009453;28;20476;-75
2022/01/18 11:34:50;;;;;;;35.50;5.07;;;9.30;28.30;;;;;;5009473;28;20534;-75
2022/01/18 11:37:23;;;;;;;38.43;6.50;;;9.30;28.10;;;;;;5010204;28;20898;-75
2022/01/18 11:39:58;;;;;;;38.40;6.33;;;9.20;28.00;;;;;;5008587;28;20861;-75
2022/01/18 11:42:39;;;;;;;39.37;6.47;;;9.10;28.10;;;;;;5009810;28;20459;-76
2022/01/18 11:45:32;;;;;;;40.30;6.00;;;9.00;27.30;;;;;;5010472;28;20468;-74
2022/01/18 11:48:05;;;;;;;37.90;6.13;;;8.80;27.70;;;;;;5010991;28;20518;-74
2022/01/18 11:50:34;;;;;;;34.57;4.80;;;8.80;28.10;;;;;;5009251;28;20484;-75
2022/01/18 11:53:39;;;;;;;34.33;4.50;;;8.70;27.80;;;;;;5009592;28;20460;-74
2022/01/18 11:56:11;;;;;;;35.27;4.43;;;8.70;27.90;;;;;;4950151;28;20831;-75
2022/01/18 11:58:40;;;;;;;35.20;3.87;;;8.70;26.80;;;;;;4990366;28;20461;-75
2022/01/18 12:01:07;;;;;;;34.33;4.20;;;8.60;26.40;;;;;;4988938;28;20523;-75
2022/01/18 12:03:43;;;;;;;32.70;3.40;;;8.70;26.60;;;;;;4989398;28;20845;-76
2022/01/18 12:06:11;;;;;;;34.73;4.20;;;8.70;26.10;;;;;;5009999;28;20462;-75
2022/01/18 12:08:40;;;;;;;33.70;3.90;;;9.00;26.40;;;;;;5009344;28;20459;-75
2022/01/18 12:11:10;;;;;;;34.40;3.90;;;9.20;25.90;;;;;;5009368;28;20488;-75
2022/01/18 12:13:42;;;;;;;34.57;4.20;;;9.10;25.10;;;;;;5009337;28;20466;-75
2022/01/18 12:16:19;;;;;;;33.13;3.30;;;9.10;24.40;;;;;;5008848;28;21095;-75
2022/01/18 12:18:55;;;;;;;34.23;4.03;;;9.00;24.70;;;;;;5008945;28;20469;-75
2022/01/18 12:21:26;;;;;;;33.50;3.33;;;9.00;24.20;;;;;;5009044;28;20480;-75
2022/01/18 12:23:53;;;;;;;32.97;3.27;;;8.90;23.30;;;;;;5009168;28;20470;-75
2022/01/18 12:26:34;;;;;;;33.90;3.07;;;8.80;22.90;;;;;;5008342;28;20833;-75
2022/01/18 12:34:51;;;;;;;33.30;3.30;;;8.70;23.40;;;;;;5008281;28;20453;-76
2022/01/18 12:37:37;;;;;;;35.17;3.57;;;8.60;23.80;;;;;;4988775;28;20531;-75
2022/01/18 12:40:10;;;;;;;36.17;4.43;;;8.40;23.90;;;;;;4988781;28;20492;-76
2022/01/18 12:45:29;;;;;;;34.53;4.10;;;8.20;25.20;;;;;;4990109;28;20511;-75
2022/01/18 12:47:59;;;;;;;36.70;3.97;;;8.20;25.10;;;;;;5008535;28;20478;-75
2022/01/18 12:50:28;;;;;;;34.50;3.80;;;8.10;25.30;;;;;;5008529;28;20805;-75
2022/01/18 12:52:59;;;;;;;35.90;4.53;;;8.00;25.30;;;;;;5008977;28;20472;-75
2022/01/18 12:55:31;;;;;;;36.73;3.60;;;8.00;25.70;;;;;;5008369;28;20913;-75
2022/01/18 12:58:00;;;;;;;34.33;3.37;;;7.90;26.00;;;;;;5008289;28;20554;-75
2022/01/18 13:00:28;;;;;;;35.80;3.97;;;7.90;26.10;;;;;;5007256;28;21039;-76
2022/01/18 13:02:59;;;;;;;35.60;3.40;;;7.70;26.40;;;;;;5008493;28;20464;-75
2022/01/18 13:05:38;;;;;;;34.30;3.47;;;7.70;26.40;;;;;;5008332;28;20518;-75
2022/01/18 13:08:05;;;;;;;34.27;3.73;;;7.60;26.50;;;;;;4991054;28;20469;-74
2022/01/18 13:10:40;;;;;;;33.37;3.13;;;7.60;26.70;;;;;;4988067;28;20862;-75
2022/01/18 13:13:08;;;;;;;34.03;3.17;;;7.70;26.60;;;;;;4988354;28;20464;-75
2022/01/18 13:15:50;;;;;;;33.07;3.23;;;7.80;26.70;;;;;;4988241;28;20485;-74
2022/01/18 13:24:07;;;;;;;34.13;3.50;;;8.10;25.70;;;;;;4989512;28;20606;-75
2022/01/18 13:26:40;;;;;;;33.90;3.00;;;8.10;25.60;;;;;;4999150;28;20860;-75
2022/01/18 13:29:12;;;;;;;35.90;3.73;;;8.10;25.80;;;;;;5008091;28;20634;-74
2022/01/18 13:31:43;;;;;;;33.80;3.40;;;8.00;24.80;;;;;;5004580;28;20542;-74
2022/01/18 13:34:12;;;;;;;35.10;4.13;;;8.00;24.70;;;;;;5007179;28;20885;-74
2022/01/18 13:36:58;;;;;;;36.90;3.97;;;8.00;25.10;;;;;;5009250;28;20510;-76
2022/01/18 13:39:31;;;;;;;34.60;4.10;;;8.00;25.50;;;;;;5006821;28;20487;-75
2022/01/18 13:42:00;;;;;;;35.60;3.73;;;7.90;25.60;;;;;;5007541;28;20460;-78
2022/01/18 13:44:27;;;;;;;39.63;3.27;;;7.80;25.80;;;;;;5009103;28;20543;-74
2022/01/18 13:46:56;;;;;;;34.73;3.37;;;7.90;26.10;;;;;;5008015;28;20452;-76
2022/01/18 13:49:24;;;;;;;34.57;3.23;;;7.80;26.10;;;;;;5008222;28;20456;-77
2022/01/18 13:52:03;;;;;;;33.10;2.70;;;7.80;25.30;;;;;;5006482;28;20471;-75
2022/01/18 13:54:43;;;;;;;33.37;3.00;;;7.70;25.20;;;;;;5008143;28;20459;-75
2022/01/18 13:57:10;;;;;;;34.70;2.87;;;7.60;25.30;;;;;;5010288;28;20495;-77